• Join FlightAware (Why Join?)
  • Login
  • US Flag 
05:29AM EST


 

Airport Tracker/Info


-or-


 

Live Flight TrackerFlight Track Log ✈ DAL1671 ✈ 19-Jul-2013 ✈ KMIA - KJFK

Flight Track Log - Related Links

Times and Time Zones

All times are in EDT time to prevent confusion due to time zone crossing. See the DAL1671 flight status page for this flight to view local times or setup timezone preferences in your user account.

Time Position Orientation Groundspeed Altitude Reporting Facility
EDT Latitude Longitude Course Direction KTS MPH feet Rate Location/Type
12:36PM 25.7983 -80.2675 61° Northeast 160 184 900  Level Miami Center
12:37PM 25.8061 -80.1986 83° East 233 268 2,900 1,860 Climbing Miami Center
12:38PM 25.8228 -80.1136 78° East 265 305 5,400 2,400 Climbing Miami Center
12:39PM 25.8785 -79.9277 55° Northeast  Level FlightAware Approximate
12:39PM 25.8517 -80.0336 68° East 271 312 8,200  Level Miami Center
12:40PM 25.9478 -79.8231 52° Northeast  Level FlightAware Approximate
12:40PM 25.8992 -79.9586 55° Northeast 282 325 10,500  Level Miami Center
12:41PM 26.0160 -79.7179 61° Northeast  Level FlightAware Approximate
12:41PM 25.9533 -79.8678 56° Northeast 311 358 11,500  Level Miami Center
12:42PM 26.0097 -79.7650 59° Northeast 353 406 13,900 2,280 Climbing Miami Center
12:43PM 26.0783 -79.6694 51° Northeast 377 434 16,100 1,980 Climbing Miami Center
12:44PM 26.1819 -79.6094 27° Northeast 391 450 17,900 1,860 Climbing Miami Center
12:45PM 26.2919 -79.5333 32° Northeast 406 467 19,900 1,500 Climbing Miami Center
12:46PM 26.3975 -79.4661 30° Northeast 425 489 21,000 1,200 Climbing Miami Center
12:47PM 26.5053 -79.3942 31° Northeast 447 514 22,300 1,620 Climbing Miami Center
12:48PM 26.6153 -79.3222 30° Northeast 453 521 24,300 1,500 Climbing Miami Center
12:49PM 26.7292 -79.2500 30° Northeast 453 521 25,300 1,080 Climbing Miami Center
12:50PM 26.8392 -79.1756 31° Northeast 458 527 26,500 1,800 Climbing Miami Center
12:51PM 26.9486 -79.1078 29° Northeast 458 527 28,900 1,560 Climbing Miami Center
12:52PM 27.0664 -79.0681 17° North 434 499 29,700 900 Climbing Miami Center
12:53PM 27.1772 -79.0467 10° North 436 502 30,700 1,080 Climbing Miami Center
12:54PM 27.3114 -79.0167 11° North 442 509 31,900 660 Climbing Miami Center
12:55PM 27.4414 -78.9908 10° North 456 525 32,100 540 Climbing Miami Center
12:56PM 27.5692 -78.9653 10° North 461 531 33,000 420 Climbing Miami Center
12:57PM 27.6842 -78.9414 10° North 467 537 33,000  Level Miami Center
12:58PM 27.8142 -78.9156 10° North 467 537 33,000  Level Miami Center
12:59PM 27.9503 -78.8828 12° North 461 531 33,000 420 Level Miami Center
01:00PM 28.0758 -78.8569 10° North 461 531 33,900 900 Climbing Miami Center
01:01PM 28.1994 -78.8308 11° North 461 531 34,900 540 Climbing Miami Center
01:02PM 28.3272 -78.8047 10° North 456 525 35,000  Climbing Miami Center
01:03PM 28.4547 -78.7786 10° North 450 518 35,000  Level Miami Center
01:04PM 28.5761 -78.7522 11° North 445 512 35,000  Level Miami Center
01:05PM 28.7017 -78.7261 10° North 451 519 35,000  Level Miami Center
01:06PM 28.8211 -78.6950 13° North 445 512 35,000  Level Miami Center
01:07PM 28.9550 -78.6711 North 451 519 35,000 -60 Level Miami Center
01:09PM 29.1600 -78.6269 11° North 458 527 34,900 -60 Descending Jacksonville Center
01:10PM 29.2611 -78.5964 15° North 439 505 34,900  Level Jacksonville Center
01:11PM 29.3856 -78.5694 11° North 448 516 34,900  Level Jacksonville Center
01:12PM 29.5097 -78.5403 12° North 453 521 34,900  Level Jacksonville Center
01:13PM 29.6528 -78.5147 North 451 519 35,000  Climbing Jacksonville Center
01:14PM 29.7794 -78.4922 North 455 524 35,000 120 Level Jacksonville Center
01:15PM 29.9014 -78.4581 14° North 458 527 35,300 600 Climbing Jacksonville Center
01:16PM 30.0342 -78.4375 North 470 541 36,200 720 Climbing Jacksonville Center
01:17PM 30.1561 -78.4056 13° North 444 511 36,800 360 Climbing Jacksonville Center
01:18PM 30.2597 -78.3839 10° North 442 509 37,000  Climbing Jacksonville Center
01:19PM 30.3903 -78.3561 10° North 447 514 36,900  Descending Jacksonville Center
01:20PM 30.5125 -78.3286 11° North 452 520 37,000  Climbing Jacksonville Center
01:21PM 30.6328 -78.3036 10° North 446 513 37,000 -60 Level Jacksonville Center
01:22PM 30.7547 -78.2758 11° North 446 513 36,900 -60 Descending Jacksonville Center
01:23PM 30.8853 -78.2500 10° North 446 513 36,900  Level Jacksonville Center
01:24PM 31.0033 -78.2250 10° North 446 513 36,900  Level Jacksonville Center
01:25PM 31.1253 -78.1897 14° North 446 513 36,900  Level Jacksonville Center
01:26PM 31.2517 -78.1639 10° North 446 513 36,900  Level Jacksonville Center
01:27PM 31.3781 -78.1381 10° North 446 513 36,900  Level Jacksonville Center
01:28PM 31.5044 -78.1144 North 446 513 37,000  Climbing Jacksonville Center
01:29PM 31.6286 -78.0839 12° North 451 519 37,000 -60 Level Jacksonville Center
01:30PM 31.7550 -78.0603 North 457 526 36,900  Descending Jacksonville Center
01:31PM 31.8853 -78.0314 11° North 464 534 37,000  Climbing Jacksonville Center
01:32PM 32.0092 -77.9953 14° North 464 534 36,900  Descending Jacksonville Center
01:33PM 32.1306 -77.9472 19° North 464 534 37,000  Climbing Jacksonville Center
01:34PM 32.2539 -77.9014 17° North 459 528 37,000 -60 Level Jacksonville Center
01:35PM 32.3731 -77.8553 18° North 454 522 36,900 -60 Descending Jacksonville Center
01:36PM 32.4964 -77.8067 18° North 454 522 36,900  Level Jacksonville Center
01:37PM 32.6178 -77.7603 18° North 454 522 36,900  Level Jacksonville Center
01:38PM 32.7408 -77.7114 18° North 454 522 37,000  Climbing Jacksonville Center
01:40PM 33.0392 -77.5978 18° North 464 534 36,900 -60 Descending Washington Center
01:41PM 33.1608 -77.5461 20° North 464 534 36,900  Level Washington Center
01:42PM 33.2869 -77.4944 19° North 469 540 37,000  Climbing Washington Center
01:43PM 33.4086 -77.4450 19° North 469 540 37,000  Level Washington Center
01:44PM 33.5325 -77.3981 18° North 469 540 37,000  Level Washington Center
01:45PM 33.6561 -77.3458 19° North 469 540 37,000 -60 Level Washington Center
01:46PM 33.7822 -77.2958 18° North 469 540 36,900 -60 Descending Washington Center
01:47PM 33.9058 -77.2458 19° North 464 534 36,900  Level Washington Center
01:48PM 34.0422 -77.1883 19° North 469 540 36,900  Level Washington Center
01:49PM 34.1661 -77.1406 18° North 463 533 37,000  Climbing Washington Center
01:50PM 34.2875 -77.0903 19° North 463 533 36,900 -60 Descending Washington Center
01:51PM 34.4114 -77.0394 19° North 468 539 36,900  Level Washington Center
01:52PM 34.5331 -76.9886 19° North 468 539 36,900  Level Washington Center
01:53PM 34.6567 -76.9403 18° North 468 539 36,900  Level Washington Center
01:54PM 34.7803 -76.8867 20° North 468 539 37,000  Climbing Washington Center
01:55PM 34.9019 -76.8381 18° North 468 539 37,000 -60 Level Washington Center
01:56PM 35.0256 -76.7842 20° North 468 539 36,900  Descending Washington Center
01:57PM 35.1344 -76.7375 19° North 471 542 37,000  Climbing Washington Center
01:58PM 35.2600 -76.6858 19° North 466 536 37,000 -60 Level Washington Center
01:59PM 35.3919 -76.6292 19° North 466 536 36,900 -60 Descending Washington Center
02:00PM 35.5156 -76.5769 19° North 466 536 36,900  Level Washington Center
02:01PM 35.6139 -76.5347 19° North 466 536 37,000  Climbing Washington Center
02:02PM 35.7583 -76.4725 19° North 466 536 37,000 -60 Level Washington Center
02:03PM 35.8819 -76.4253 17° North 461 531 36,900  Descending Washington Center
02:04PM 36.0011 -76.3700 21° North 461 531 37,000  Climbing Washington Center
02:05PM 36.1206 -76.3197 19° North 461 531 36,900 -60 Descending Washington Center
02:06PM 36.2417 -76.2667 19° North 461 531 36,900  Level Washington Center
02:07PM 36.3631 -76.2161 19° North 461 531 36,900  Level Washington Center
02:08PM 36.4822 -76.1656 19° North 456 525 37,000  Climbing Washington Center
02:09PM 36.6014 -76.1119 20° North 456 525 37,000  Level Washington Center
02:10PM 36.6956 -76.0711 19° North 451 519 37,000  Level Washington Center
02:11PM 36.8333 -76.0072 20° North 451 519 37,000  Level Washington Center
02:12PM 36.9525 -75.9558 19° North 451 519 37,000 -60 Level Washington Center
02:13PM 37.0819 -75.9042 18° North 465 535 36,900 -60 Descending Washington Center
02:14PM 37.2008 -75.8528 19° North 465 535 36,900  Level Washington Center
02:15PM 37.3158 -75.8008 20° North 458 527 36,900  Level Washington Center
02:16PM 37.4347 -75.7461 20° North 452 520 36,900  Level Washington Center
02:17PM 37.5517 -75.6967 19° North 446 513 36,900  Level Washington Center
02:18PM 37.6683 -75.6417 20° North 446 513 36,900  Level Washington Center
02:19PM 37.7894 -75.5917 18° North 446 513 36,900  Level Washington Center
02:20PM 37.9061 -75.5261 24° Northeast 446 513 36,900  Level Washington Center
02:21PM 38.0228 -75.4625 23° Northeast 457 526 37,000  Climbing Washington Center
02:22PM 38.1394 -75.3858 27° Northeast 457 526 37,000  Level Washington Center
02:23PM 38.2561 -75.3194 24° Northeast 457 526 37,000  Level Washington Center
02:24PM 38.3706 -75.2447 27° Northeast 462 532 37,000 -60 Level Washington Center
02:25PM 38.4872 -75.1753 25° Northeast 462 532 36,900  Descending Washington Center
02:26PM 38.6017 -75.1003 27° Northeast 457 526 37,000  Climbing Washington Center
02:27PM 38.7161 -75.0328 25° Northeast 457 526 36,900 -60 Descending Washington Center
02:28PM 38.8303 -74.9628 26° Northeast 452 520 36,900 -360 Level Washington Center
02:29PM 38.9444 -74.8925 26° Northeast 452 520 36,200 -1,620 Descending Washington Center
02:30PM 39.0608 -74.8217 25° Northeast 452 520 33,700 -3,120 Descending Washington Center
02:31PM 39.1664 -74.7269 35° Northeast 458 527 30,100 -3,060 Descending Washington Center
02:33PM 39.3319 -74.5447 40° Northeast 473 544 25,800 -2,580 Descending New York Center
02:34PM 39.4269 -74.4422 40° Northeast 448 516 23,300 -2,460 Descending New York Center
02:35PM 39.5239 -74.3394 39° Northeast 443 510 20,800 -2,220 Descending New York Center
02:36PM 39.6231 -74.2286 41° Northeast 443 510 19,000 -1,620 Descending New York Center
02:37PM 39.7028 -74.1408 40° Northeast 421 484 17,600 -2,100 Descending New York Center
02:38PM 39.7997 -74.0347 40° Northeast 411 473 14,800 -2,640 Descending New York Center
02:39PM 39.8894 -73.9550 34° Northeast 405 466 12,500 -1,740 Descending New York Center
02:40PM 39.9786 -73.8914 29° Northeast 380 437 11,400 -780 Descending New York Center
02:41PM 40.0428 -73.8319 35° Northeast 336 387 11,000 -300 Descending New York Center
02:42PM 40.1156 -73.7567 38° Northeast 311 358 10,900 -660 Descending New York Center
02:43PM 40.1742 -73.7456 North 242 278 9,800 -1,380 Descending New York Center
02:44PM 40.2378 -73.7864 334° Northwest 222 255 8,200 -1,500 Descending New York Center
02:45PM 40.2692 -73.8583 300° West 219 252 6,800 -1,320 Descending New York Center
02:46PM 40.3158 -73.9067 322° Northwest 219 252 5,600 -1,320 Descending New York Center
02:47PM 40.3303 -73.9836 284° West 208 239 4,200 -1,320 Descending New York Center
02:48PM 40.3811 -74.0297 325° Northwest 208 239 3,100 -660 Descending New York Center
02:49PM 40.4439 -74.0244 North 212 244 3,000 -60 Descending New York Center
02:50PM 40.4947 -73.9942 24° Northeast 199 229 3,000 -60 Level New York Center
02:51PM 40.5397 -73.9525 35° Northeast 199 229 2,900 -120 Descending New York Center